Time;durP1;ratioP1;P1;durP2;ratioP2;P2;SDS_P1;SDS_P2;PMS_P1;PMS_P2;Temp;Humidity;BMP_temperature;BMP_pressure;BME280_temperature;BME280_humidity;BME280_pressure;Samples;Min_cycle;Max_cycle;Signal;HPM_P1;HPM_P2
2023/07/19 00:00:40;;;;;;;;;2.00;1.00;;;;;;;;5034141;28;45699;-76
2023/07/19 00:03:05;;;;;;;;;2.75;1.50;;;;;;;;5033036;28;45371;-76
2023/07/19 00:05:31;;;;;;;;;1.00;1.00;;;;;;;;5033912;28;46109;-75
2023/07/19 00:07:56;;;;;;;;;2.00;2.00;;;;;;;;5032555;28;45460;-73
2023/07/19 00:10:22;;;;;;;;;2.00;2.00;;;;;;;;5033981;28;45437;-76
2023/07/19 00:12:47;;;;;;;;;1.00;1.00;;;;;;;;5034015;28;45309;-73
2023/07/19 00:15:12;;;;;;;;;1.00;0.00;;;;;;;;5033531;28;47193;-76
2023/07/19 00:17:37;;;;;;;;;1.00;1.00;;;;;;;;5033396;28;45432;-74
2023/07/19 00:20:03;;;;;;;;;0.50;0.50;;;;;;;;5033884;28;45368;-78
2023/07/19 00:22:28;;;;;;;;;0.25;0.25;;;;;;;;5033895;28;45406;-74
2023/07/19 00:24:53;;;;;;;;;0.50;0.25;;;;;;;;5033706;28;46594;-74
2023/07/19 00:27:19;;;;;;;;;2.75;1.00;;;;;;;;5034438;28;45194;-74
2023/07/19 00:29:44;;;;;;;;;3.50;2.25;;;;;;;;5035051;28;45255;-74
2023/07/19 00:32:09;;;;;;;;;0.25;0.25;;;;;;;;5033270;28;45285;-73
2023/07/19 00:34:34;;;;;;;;;1.00;1.00;;;;;;;;5034486;28;46306;-73
2023/07/19 00:37:00;;;;;;;;;2.00;2.00;;;;;;;;5034528;28;45287;-73
2023/07/19 00:39:25;;;;;;;;;1.00;1.00;;;;;;;;5034254;28;45325;-74
2023/07/19 00:41:50;;;;;;;;;1.00;1.00;;;;;;;;5034787;28;45351;-75
2023/07/19 00:44:16;;;;;;;;;0.50;0.50;;;;;;;;5034332;28;46344;-74
2023/07/19 00:46:41;;;;;;;;;1.00;1.00;;;;;;;;5031944;28;45467;-74
2023/07/19 00:49:07;;;;;;;;;1.00;1.00;;;;;;;;5034586;28;45630;-74
2023/07/19 00:51:32;;;;;;;;;1.00;1.00;;;;;;;;5034516;28;45494;-74
2023/07/19 00:53:58;;;;;;;;;2.00;2.00;;;;;;;;5033788;28;46152;-74
2023/07/19 00:56:23;;;;;;;;;1.00;1.00;;;;;;;;5034499;28;45371;-74
2023/07/19 00:58:50;;;;;;;;;1.00;1.00;;;;;;;;5034219;28;45659;-73
2023/07/19 01:01:15;;;;;;;;;1.00;1.00;;;;;;;;5035737;28;45526;-73
2023/07/19 01:03:41;;;;;;;;;2.00;1.00;;;;;;;;5037321;28;46315;-73
2023/07/19 01:06:06;;;;;;;;;1.50;1.50;;;;;;;;5036940;28;45502;-73
2023/07/19 01:08:31;;;;;;;;;1.00;1.00;;;;;;;;5037506;28;45411;-73
2023/07/19 01:10:56;;;;;;;;;1.00;1.00;;;;;;;;5036979;28;45484;-73
2023/07/19 01:13:22;;;;;;;;;1.00;1.00;;;;;;;;5037372;28;47110;-74
2023/07/19 01:15:47;;;;;;;;;1.50;1.50;;;;;;;;5037309;28;45306;-73
2023/07/19 01:18:13;;;;;;;;;2.00;2.00;;;;;;;;5036360;28;45345;-73
2023/07/19 01:20:38;;;;;;;;;2.00;1.00;;;;;;;;5037364;28;45373;-73
2023/07/19 01:23:04;;;;;;;;;1.00;1.00;;;;;;;;5037078;28;46412;-73
2023/07/19 01:25:29;;;;;;;;;1.25;1.25;;;;;;;;5037412;28;45912;-73
2023/07/19 01:27:54;;;;;;;;;1.00;1.00;;;;;;;;5036216;28;45674;-73
2023/07/19 01:30:20;;;;;;;;;1.50;1.50;;;;;;;;5036131;28;45554;-73
2023/07/19 01:32:45;;;;;;;;;0.00;0.00;;;;;;;;5035976;28;48536;-73
2023/07/19 01:35:10;;;;;;;;;1.50;1.50;;;;;;;;5037023;28;45354;-74
2023/07/19 01:37:35;;;;;;;;;1.00;0.75;;;;;;;;5037110;28;45241;-73
2023/07/19 01:40:01;;;;;;;;;1.75;0.00;;;;;;;;5037277;28;45303;-73
2023/07/19 01:42:27;;;;;;;;;1.00;1.00;;;;;;;;5036826;28;46902;-73
2023/07/19 01:44:53;;;;;;;;;0.00;0.00;;;;;;;;5036837;28;45496;-74
2023/07/19 01:47:18;;;;;;;;;1.00;1.00;;;;;;;;5035646;28;45395;-74
2023/07/19 01:49:43;;;;;;;;;2.00;2.00;;;;;;;;5036932;28;45284;-74
2023/07/19 01:52:08;;;;;;;;;1.00;1.00;;;;;;;;5036157;28;47153;-74
2023/07/19 01:54:34;;;;;;;;;1.00;1.00;;;;;;;;5036993;28;45359;-74
2023/07/19 01:56:59;;;;;;;;;0.50;0.50;;;;;;;;5035889;28;45446;-73
2023/07/19 01:59:24;;;;;;;;;3.75;1.75;;;;;;;;5036664;28;45296;-74
2023/07/19 02:01:49;;;;;;;;;1.50;1.50;;;;;;;;5036758;28;46058;-73
2023/07/19 02:04:15;;;;;;;;;1.50;1.00;;;;;;;;5036727;28;45359;-74
2023/07/19 02:06:40;;;;;;;;;2.50;1.75;;;;;;;;5035208;28;45382;-74
2023/07/19 02:09:05;;;;;;;;;1.00;1.00;;;;;;;;5035372;28;45367;-73
2023/07/19 02:11:30;;;;;;;;;2.00;0.75;;;;;;;;5035841;28;45451;-73
2023/07/19 02:13:55;;;;;;;;;1.00;1.00;;;;;;;;5036399;28;45314;-73
2023/07/19 02:16:21;;;;;;;;;1.75;1.75;;;;;;;;5036783;28;45432;-73
2023/07/19 02:18:46;;;;;;;;;0.75;0.75;;;;;;;;5036358;28;45390;-73
2023/07/19 02:21:11;;;;;;;;;2.00;1.00;;;;;;;;5034890;28;48009;-74
2023/07/19 02:23:36;;;;;;;;;1.00;1.00;;;;;;;;5036667;28;45355;-74
2023/07/19 02:26:01;;;;;;;;;2.50;1.25;;;;;;;;5034991;28;45510;-74
2023/07/19 02:28:27;;;;;;;;;0.00;0.00;;;;;;;;5036504;28;45354;-73
2023/07/19 02:30:52;;;;;;;;;1.25;1.00;;;;;;;;5036372;28;45896;-74
2023/07/19 02:33:17;;;;;;;;;1.75;1.00;;;;;;;;5036211;28;45379;-73
2023/07/19 02:35:43;;;;;;;;;4.00;2.00;;;;;;;;5035997;28;45872;-74
2023/07/19 02:38:08;;;;;;;;;1.00;1.00;;;;;;;;5036156;28;45249;-74
2023/07/19 02:40:34;;;;;;;;;1.50;0.75;;;;;;;;5036229;28;45308;-75
2023/07/19 02:42:59;;;;;;;;;1.50;1.50;;;;;;;;5036107;28;45308;-75
2023/07/19 02:45:24;;;;;;;;;2.00;0.50;;;;;;;;5036445;28;45293;-75
2023/07/19 02:47:50;;;;;;;;;1.25;1.00;;;;;;;;5036260;28;45237;-73
2023/07/19 02:50:16;;;;;;;;;1.50;1.50;;;;;;;;5035494;28;45345;-74
2023/07/19 02:52:41;;;;;;;;;1.00;1.00;;;;;;;;5032617;28;45442;-74
2023/07/19 02:55:07;;;;;;;;;1.00;1.00;;;;;;;;5036130;28;45614;-73
2023/07/19 02:57:32;;;;;;;;;1.00;1.00;;;;;;;;5034847;28;45472;-74
2023/07/19 02:59:57;;;;;;;;;2.00;2.00;;;;;;;;5035762;28;47158;-74
2023/07/19 03:02:22;;;;;;;;;1.00;0.25;;;;;;;;5034518;28;45679;-73
2023/07/19 03:04:48;;;;;;;;;2.75;1.75;;;;;;;;5035913;28;45380;-74
2023/07/19 03:07:13;;;;;;;;;1.50;1.50;;;;;;;;5034753;28;45520;-73
2023/07/19 03:09:38;;;;;;;;;2.50;1.00;;;;;;;;5035581;28;47434;-73
2023/07/19 03:12:04;;;;;;;;;1.00;1.00;;;;;;;;5035593;28;45358;-73
2023/07/19 03:14:29;;;;;;;;;0.00;0.00;;;;;;;;5036222;28;45660;-73
2023/07/19 03:16:54;;;;;;;;;2.00;2.00;;;;;;;;5035890;28;45359;-72
2023/07/19 03:19:19;;;;;;;;;1.75;1.00;;;;;;;;5035197;28;45458;-73
2023/07/19 03:21:45;;;;;;;;;1.50;1.50;;;;;;;;5035924;28;45525;-73
2023/07/19 03:24:12;;;;;;;;;1.00;1.00;;;;;;;;5036328;28;45458;-73
2023/07/19 03:26:37;;;;;;;;;0.00;0.00;;;;;;;;5036078;28;45403;-73
2023/07/19 03:29:02;;;;;;;;;1.00;1.00;;;;;;;;5035599;28;45479;-72
2023/07/19 03:31:27;;;;;;;;;1.75;1.75;;;;;;;;5036279;28;45340;-73
2023/07/19 03:33:52;;;;;;;;;1.00;1.00;;;;;;;;5035752;28;45367;-72
2023/07/19 03:36:18;;;;;;;;;2.00;1.50;;;;;;;;5035433;28;45393;-72
2023/07/19 03:38:43;;;;;;;;;2.25;2.00;;;;;;;;5035604;28;45989;-72
2023/07/19 03:41:09;;;;;;;;;1.00;1.00;;;;;;;;5035334;28;45319;-72
2023/07/19 03:43:35;;;;;;;;;1.00;1.00;;;;;;;;5035316;28;45327;-72
2023/07/19 03:46:00;;;;;;;;;1.00;1.00;;;;;;;;5035276;28;45411;-72
2023/07/19 03:48:25;;;;;;;;;1.25;1.25;;;;;;;;5034936;28;45315;-72
2023/07/19 03:50:58;;;;;;;;;1.25;1.00;;;;;;;;5035049;28;45415;-72
2023/07/19 03:53:23;;;;;;;;;3.00;1.00;;;;;;;;5035218;28;45272;-72
2023/07/19 03:55:53;;;;;;;;;1.00;1.00;;;;;;;;5035378;28;45365;-72
2023/07/19 03:58:18;;;;;;;;;1.00;1.00;;;;;;;;5035076;28;45412;-72
2023/07/19 04:00:43;;;;;;;;;0.75;0.75;;;;;;;;5034628;28;45375;-72
2023/07/19 04:03:08;;;;;;;;;0.00;0.00;;;;;;;;5033356;28;45366;-72
2023/07/19 04:05:34;;;;;;;;;0.00;0.00;;;;;;;;5035081;28;45387;-72
2023/07/19 04:08:01;;;;;;;;;0.00;0.00;;;;;;;;5034962;28;45410;-71
2023/07/19 04:10:26;;;;;;;;;0.75;0.00;;;;;;;;5033634;28;45396;-72
2023/07/19 04:12:51;;;;;;;;;1.00;0.25;;;;;;;;5034903;28;45449;-72
2023/07/19 04:15:17;;;;;;;;;0.00;0.00;;;;;;;;5035032;28;45573;-72
2023/07/19 04:17:42;;;;;;;;;0.00;0.00;;;;;;;;5034712;28;47193;-72
2023/07/19 04:20:08;;;;;;;;;0.50;0.00;;;;;;;;5034582;28;45400;-72
2023/07/19 04:22:33;;;;;;;;;0.00;0.00;;;;;;;;5035247;28;45375;-72
2023/07/19 04:24:58;;;;;;;;;0.00;0.00;;;;;;;;5017051;28;45437;-72
2023/07/19 04:27:24;;;;;;;;;0.00;0.00;;;;;;;;5034706;28;46186;-72
2023/07/19 04:29:49;;;;;;;;;0.00;0.00;;;;;;;;5034941;28;45358;-72
2023/07/19 04:32:15;;;;;;;;;0.00;0.00;;;;;;;;5034485;28;45322;-71
2023/07/19 04:34:40;;;;;;;;;0.00;0.00;;;;;;;;5035954;28;45385;-72
2023/07/19 04:37:05;;;;;;;;;0.00;0.00;;;;;;;;5038189;28;45951;-72
2023/07/19 04:39:30;;;;;;;;;0.00;0.00;;;;;;;;5037948;28;45336;-72
2023/07/19 04:41:56;;;;;;;;;0.00;0.00;;;;;;;;5038256;28;45347;-72
2023/07/19 04:44:21;;;;;;;;;0.00;0.00;;;;;;;;5048982;28;45370;-72
2023/07/19 04:46:46;;;;;;;;;0.00;0.00;;;;;;;;5073529;28;9665;-72
2023/07/19 04:49:11;;;;;;;;;0.00;0.00;;;;;;;;5073529;28;8809;-72
2023/07/19 04:51:38;;;;;;;;;0.00;0.00;;;;;;;;5073346;28;8819;-72
2023/07/19 04:54:03;;;;;;;;;0.75;0.75;;;;;;;;5073427;28;8943;-72
2023/07/19 04:56:29;;;;;;;;;0.00;0.00;;;;;;;;5073797;28;9916;-72
2023/07/19 04:58:54;;;;;;;;;0.00;0.00;;;;;;;;5073141;28;8898;-72
2023/07/19 05:01:19;;;;;;;;;0.00;0.00;;;;;;;;5073403;28;8816;-72
2023/07/19 05:03:44;;;;;;;;;0.00;0.00;;;;;;;;5072176;28;8863;-72
2023/07/19 05:06:09;;;;;;;;;0.50;0.50;;;;;;;;5073346;28;8780;-73
2023/07/19 05:08:35;;;;;;;;;0.00;0.00;;;;;;;;5073403;28;8808;-72
2023/07/19 05:11:01;;;;;;;;;0.00;0.00;;;;;;;;5073692;28;8777;-73
2023/07/19 05:13:27;;;;;;;;;0.00;0.00;;;;;;;;5073465;28;8819;-73
2023/07/19 05:15:52;;;;;;;;;0.00;0.00;;;;;;;;5073504;28;9487;-73
2023/07/19 05:18:17;;;;;;;;;1.00;1.00;;;;;;;;5072062;28;8812;-72
2023/07/19 05:20:42;;;;;;;;;1.25;1.25;;;;;;;;5073077;28;8788;-73
2023/07/19 05:23:07;;;;;;;;;1.00;1.00;;;;;;;;5071934;28;9263;-72
2023/07/19 05:25:33;;;;;;;;;1.50;1.50;;;;;;;;5073140;28;8800;-73
2023/07/19 05:27:58;;;;;;;;;1.00;1.00;;;;;;;;5073441;28;9544;-72
2023/07/19 05:30:23;;;;;;;;;0.25;0.25;;;;;;;;5072977;28;8815;-72
2023/07/19 05:32:49;;;;;;;;;1.00;1.00;;;;;;;;5072672;28;8913;-72
2023/07/19 05:35:14;;;;;;;;;0.75;0.75;;;;;;;;5073147;28;8781;-72
2023/07/19 05:37:40;;;;;;;;;0.00;0.00;;;;;;;;5073239;28;8804;-72
2023/07/19 05:40:06;;;;;;;;;0.50;0.50;;;;;;;;5073034;28;8882;-73
2023/07/19 05:42:31;;;;;;;;;1.75;1.75;;;;;;;;5072577;28;9594;-72
2023/07/19 05:44:56;;;;;;;;;0.50;0.50;;;;;;;;5072596;28;9620;-72
2023/07/19 05:47:22;;;;;;;;;1.25;1.25;;;;;;;;5071613;28;8838;-72
2023/07/19 05:49:47;;;;;;;;;1.00;1.00;;;;;;;;5073123;28;8800;-73
2023/07/19 05:52:12;;;;;;;;;2.00;0.00;;;;;;;;5072598;28;8824;-72
2023/07/19 05:54:38;;;;;;;;;1.50;1.50;;;;;;;;5072720;28;8843;-72
2023/07/19 05:57:03;;;;;;;;;1.50;1.50;;;;;;;;5072731;28;8870;-72
2023/07/19 05:59:29;;;;;;;;;0.75;0.75;;;;;;;;5072251;28;8823;-72
2023/07/19 06:01:54;;;;;;;;;1.00;1.00;;;;;;;;5072363;28;9591;-72
2023/07/19 06:04:20;;;;;;;;;0.25;0.25;;;;;;;;5071243;28;8920;-72
2023/07/19 06:06:46;;;;;;;;;0.25;0.25;;;;;;;;5072648;28;8877;-72
2023/07/19 06:09:11;;;;;;;;;0.50;0.50;;;;;;;;5072606;28;8784;-73
2023/07/19 06:11:36;;;;;;;;;1.00;1.00;;;;;;;;5072215;28;9658;-73
2023/07/19 06:14:02;;;;;;;;;1.00;1.00;;;;;;;;5072093;28;8816;-73
2023/07/19 06:16:27;;;;;;;;;0.00;0.00;;;;;;;;5072461;28;8803;-72
2023/07/19 06:18:53;;;;;;;;;0.25;0.25;;;;;;;;5072590;28;8804;-73
2023/07/19 06:21:18;;;;;;;;;2.00;0.50;;;;;;;;5072397;28;8800;-73
2023/07/19 06:23:44;;;;;;;;;0.25;0.25;;;;;;;;5070984;28;8850;-73
2023/07/19 06:26:10;;;;;;;;;0.00;0.00;;;;;;;;5072093;28;8804;-73
2023/07/19 06:28:35;;;;;;;;;0.00;0.00;;;;;;;;5071928;28;8781;-72
2023/07/19 06:31:01;;;;;;;;;0.25;0.00;;;;;;;;5072472;28;9608;-72
2023/07/19 06:33:28;;;;;;;;;0.75;0.75;;;;;;;;5071905;28;8812;-72
2023/07/19 06:35:54;;;;;;;;;0.00;0.00;;;;;;;;5071667;28;12201;-72
2023/07/19 06:38:19;;;;;;;;;0.25;0.25;;;;;;;;5072179;28;9568;-72
2023/07/19 06:40:44;;;;;;;;;1.00;1.00;;;;;;;;5071833;28;8796;-72
2023/07/19 06:43:09;;;;;;;;;0.00;0.00;;;;;;;;5071878;28;8851;-72
2023/07/19 06:45:35;;;;;;;;;1.75;0.75;;;;;;;;5071773;28;8777;-73
2023/07/19 06:48:00;;;;;;;;;0.00;0.00;;;;;;;;5072054;28;9544;-72
2023/07/19 06:50:25;;;;;;;;;0.25;0.00;;;;;;;;5070365;28;8820;-72
2023/07/19 06:52:50;;;;;;;;;1.25;0.75;;;;;;;;5071698;28;8846;-73
2023/07/19 06:55:15;;;;;;;;;0.00;0.00;;;;;;;;5071643;28;8793;-72
2023/07/19 06:57:41;;;;;;;;;0.00;0.00;;;;;;;;5070954;28;8814;-73
2023/07/19 07:00:06;;;;;;;;;0.00;0.00;;;;;;;;5071870;28;8823;-72
2023/07/19 07:02:31;;;;;;;;;0.00;0.00;;;;;;;;5071489;28;8902;-72
2023/07/19 07:04:57;;;;;;;;;0.00;0.00;;;;;;;;5071630;28;8808;-72
2023/07/19 07:07:22;;;;;;;;;0.25;0.25;;;;;;;;5071336;28;9560;-72
2023/07/19 07:09:47;;;;;;;;;1.50;1.00;;;;;;;;5071563;28;8820;-72
2023/07/19 07:12:12;;;;;;;;;2.25;0.75;;;;;;;;5071022;28;9340;-73
2023/07/19 07:14:38;;;;;;;;;1.75;1.00;;;;;;;;5070008;28;8843;-73
2023/07/19 07:17:04;;;;;;;;;2.00;0.00;;;;;;;;5069976;28;8934;-72
2023/07/19 07:19:30;;;;;;;;;0.00;0.00;;;;;;;;5071263;28;8780;-73
2023/07/19 07:21:55;;;;;;;;;0.00;0.00;;;;;;;;5071468;28;9590;-72
2023/07/19 07:24:20;;;;;;;;;0.50;0.00;;;;;;;;5071402;28;8929;-73
2023/07/19 07:26:45;;;;;;;;;1.00;0.00;;;;;;;;5071192;28;8785;-71
2023/07/19 07:29:11;;;;;;;;;1.00;1.00;;;;;;;;5070056;28;8816;-72
2023/07/19 07:31:36;;;;;;;;;0.00;0.00;;;;;;;;5070973;28;8820;-72
2023/07/19 07:34:01;;;;;;;;;0.33;0.33;;;;;;;;5071018;28;8847;-73
2023/07/19 07:36:26;;;;;;;;;0.00;0.00;;;;;;;;5071131;28;8797;-72
2023/07/19 07:38:52;;;;;;;;;0.00;0.00;;;;;;;;5071341;28;8848;-72
2023/07/19 07:41:17;;;;;;;;;0.00;0.00;;;;;;;;5069907;28;8800;-72
2023/07/19 07:43:42;;;;;;;;;0.00;0.00;;;;;;;;5071182;28;8811;-72
2023/07/19 07:46:08;;;;;;;;;1.00;0.33;;;;;;;;5069766;28;9663;-72
2023/07/19 07:48:33;;;;;;;;;1.00;0.00;;;;;;;;5071083;28;8882;-72
2023/07/19 07:50:58;;;;;;;;;3.00;0.33;;;;;;;;5070779;28;8812;-73
2023/07/19 07:53:23;;;;;;;;;0.00;0.00;;;;;;;;5070643;28;8836;-73
2023/07/19 07:55:49;;;;;;;;;1.67;0.00;;;;;;;;5071036;28;8784;-72
2023/07/19 07:58:14;;;;;;;;;0.00;0.00;;;;;;;;5070912;28;8804;-72
2023/07/19 08:00:40;;;;;;;;;1.00;1.00;;;;;;;;5070757;28;8806;-72
2023/07/19 08:03:05;;;;;;;;;1.00;1.00;;;;;;;;5070663;28;8792;-72
2023/07/19 08:05:31;;;;;;;;;0.00;0.00;;;;;;;;5071035;28;8812;-72
2023/07/19 08:07:56;;;;;;;;;0.00;0.00;;;;;;;;5070145;28;8804;-72
2023/07/19 08:10:22;;;;;;;;;0.50;0.50;;;;;;;;5073306;28;8922;-71
2023/07/19 08:12:47;;;;;;;;;0.67;0.67;;;;;;;;5074346;28;8816;-72
2023/07/19 08:15:12;;;;;;;;;2.00;1.00;;;;;;;;5074225;28;8817;-72
2023/07/19 08:17:37;;;;;;;;;0.67;0.67;;;;;;;;5074354;28;8795;-73
2023/07/19 08:20:05;;;;;;;;;1.50;0.75;;;;;;;;5074417;28;8819;-72
2023/07/19 08:22:33;;;;;;;;;1.00;1.00;;;;;;;;5074187;28;8776;-72
2023/07/19 08:24:58;;;;;;;;;2.00;0.00;;;;;;;;5074552;28;9529;-72
2023/07/19 08:27:24;;;;;;;;;0.00;0.00;;;;;;;;5072931;28;9506;-72
2023/07/19 08:29:51;;;;;;;;;1.00;1.00;;;;;;;;5074263;28;8877;-73
2023/07/19 08:32:16;;;;;;;;;0.00;0.00;;;;;;;;5074103;28;9638;-72
2023/07/19 08:34:42;;;;;;;;;1.25;0.00;;;;;;;;5074553;28;9555;-72
2023/07/19 08:37:07;;;;;;;;;1.00;1.00;;;;;;;;5074110;28;8824;-73
2023/07/19 08:39:32;;;;;;;;;1.00;0.00;;;;;;;;5072744;28;8812;-73
2023/07/19 08:42:00;;;;;;;;;0.50;0.25;;;;;;;;5074104;28;8843;-73
2023/07/19 08:44:26;;;;;;;;;0.00;0.00;;;;;;;;5074281;28;8773;-72
2023/07/19 08:46:51;;;;;;;;;0.00;0.00;;;;;;;;5074335;28;9585;-73
2023/07/19 08:49:17;;;;;;;;;0.25;0.00;;;;;;;;5074082;28;8792;-73
2023/07/19 08:51:43;;;;;;;;;1.00;1.00;;;;;;;;5072716;28;9608;-73
2023/07/19 08:54:08;;;;;;;;;0.00;0.00;;;;;;;;5073409;28;8862;-73
2023/07/19 08:56:34;;;;;;;;;0.25;0.25;;;;;;;;5073977;28;8831;-73
2023/07/19 08:58:59;;;;;;;;;0.50;0.50;;;;;;;;5072370;28;8824;-73
2023/07/19 09:01:24;;;;;;;;;1.00;1.00;;;;;;;;5073612;28;8808;-75
2023/07/19 09:03:49;;;;;;;;;0.00;0.00;;;;;;;;5073536;28;8824;-75
2023/07/19 09:06:25;;;;;;;;;0.00;0.00;;;;;;;;5071983;28;8789;-73
2023/07/19 09:08:51;;;;;;;;;1.00;1.00;;;;;;;;5073364;28;8846;-73
2023/07/19 09:11:20;;;;;;;;;0.25;0.25;;;;;;;;5073317;28;9646;-74
2023/07/19 09:13:50;;;;;;;;;0.75;0.75;;;;;;;;5071794;28;9530;-74
2023/07/19 09:16:15;;;;;;;;;0.00;0.00;;;;;;;;5071918;28;9928;-73
2023/07/19 09:18:40;;;;;;;;;0.67;0.67;;;;;;;;5073137;28;9549;-75
2023/07/19 09:21:06;;;;;;;;;1.00;0.75;;;;;;;;5071633;28;8796;-75
2023/07/19 09:23:38;;;;;;;;;1.00;1.00;;;;;;;;5073176;28;8812;-73
2023/07/19 09:26:04;;;;;;;;;0.25;0.25;;;;;;;;5072919;28;8801;-73
2023/07/19 09:28:29;;;;;;;;;1.25;0.25;;;;;;;;5071935;28;9723;-73
2023/07/19 09:30:56;;;;;;;;;0.50;0.50;;;;;;;;5072984;28;11557;-73
2023/07/19 09:33:21;;;;;;;;;1.00;0.00;;;;;;;;5072620;28;8793;-73
2023/07/19 09:35:52;;;;;;;;;1.00;0.00;;;;;;;;5072762;28;9737;-73
2023/07/19 09:38:18;;;;;;;;;1.25;0.25;;;;;;;;5072857;28;8801;-74
2023/07/19 09:40:43;;;;;;;;;0.25;0.00;;;;;;;;5072827;28;9737;-73
2023/07/19 09:43:09;;;;;;;;;1.50;1.50;;;;;;;;5071501;28;11502;-73
2023/07/19 09:45:34;;;;;;;;;1.00;1.00;;;;;;;;5072795;28;8796;-73
2023/07/19 09:48:01;;;;;;;;;1.00;1.00;;;;;;;;5072673;28;8831;-73
2023/07/19 09:50:27;;;;;;;;;0.00;0.00;;;;;;;;5072479;28;8789;-73
2023/07/19 09:52:55;;;;;;;;;2.00;0.25;;;;;;;;5071249;28;9458;-72
2023/07/19 09:55:21;;;;;;;;;1.00;0.00;;;;;;;;5072552;28;8785;-72
2023/07/19 09:57:48;;;;;;;;;2.00;2.00;;;;;;;;5072662;28;9556;-72
2023/07/19 10:00:14;;;;;;;;;4.00;4.00;;;;;;;;5072589;28;8792;-72
2023/07/19 10:02:39;;;;;;;;;2.00;2.00;;;;;;;;5072306;28;9725;-73
2023/07/19 10:05:06;;;;;;;;;4.00;4.00;;;;;;;;5072381;28;8808;-72
2023/07/19 10:07:31;;;;;;;;;3.00;3.00;;;;;;;;5072245;28;8777;-73
2023/07/19 10:10:00;;;;;;;;;1.00;1.00;;;;;;;;5072373;28;10539;-73
2023/07/19 10:12:25;;;;;;;;;1.00;1.00;;;;;;;;5072670;28;8846;-73
2023/07/19 10:14:50;;;;;;;;;0.00;0.00;;;;;;;;5072448;28;9668;-73
2023/07/19 10:17:15;;;;;;;;;0.33;0.33;;;;;;;;5072410;28;8812;-73
2023/07/19 10:19:55;;;;;;;;;1.50;1.50;;;;;;;;5071939;28;8764;-73
2023/07/19 10:22:20;;;;;;;;;1.00;1.00;;;;;;;;5072628;28;8869;-72
2023/07/19 10:25:03;;;;;;;;;2.00;1.00;;;;;;;;5072453;28;10244;-73
2023/07/19 10:27:35;;;;;;;;;3.00;1.50;;;;;;;;5072341;28;8772;-73
2023/07/19 10:30:03;;;;;;;;;1.50;1.50;;;;;;;;5072008;28;9730;-72
2023/07/19 10:32:29;;;;;;;;;1.00;1.00;;;;;;;;5071504;28;9808;-72
2023/07/19 10:34:54;;;;;;;;;1.25;1.25;;;;;;;;5071628;28;9726;-72
2023/07/19 10:37:20;;;;;;;;;2.25;2.25;;;;;;;;5071682;28;8831;-72
2023/07/19 10:39:45;;;;;;;;;1.00;1.00;;;;;;;;5072113;28;8893;-72
2023/07/19 10:42:10;;;;;;;;;0.25;0.25;;;;;;;;5072147;28;8807;-71
2023/07/19 10:44:36;;;;;;;;;1.75;1.75;;;;;;;;5070528;28;8808;-71
2023/07/19 10:47:01;;;;;;;;;1.00;1.00;;;;;;;;5071976;28;8792;-73
2023/07/19 10:49:27;;;;;;;;;1.00;1.00;;;;;;;;5071524;28;8816;-73
2023/07/19 10:51:53;;;;;;;;;3.75;1.00;;;;;;;;5070242;28;8804;-73
2023/07/19 10:54:18;;;;;;;;;0.50;0.50;;;;;;;;5071544;28;8804;-71
2023/07/19 10:56:43;;;;;;;;;2.75;1.00;;;;;;;;5071504;28;12276;-73
2023/07/19 10:59:10;;;;;;;;;1.75;1.25;;;;;;;;5071772;28;8808;-73
2023/07/19 11:01:35;;;;;;;;;0.00;0.00;;;;;;;;5070437;28;8833;-73
2023/07/19 11:04:02;;;;;;;;;1.00;1.00;;;;;;;;5071429;28;9658;-73
2023/07/19 11:06:27;;;;;;;;;1.00;1.00;;;;;;;;5071512;28;8792;-73
2023/07/19 11:08:52;;;;;;;;;1.00;1.00;;;;;;;;5070354;28;9727;-73
2023/07/19 11:11:17;;;;;;;;;2.25;2.25;;;;;;;;5071794;28;8792;-72
2023/07/19 11:13:44;;;;;;;;;2.00;2.00;;;;;;;;5071728;28;8898;-72
2023/07/19 11:16:10;;;;;;;;;4.25;1.75;;;;;;;;5071428;28;8797;-73
2023/07/19 11:18:36;;;;;;;;;0.00;0.00;;;;;;;;5071353;28;9630;-75
2023/07/19 11:21:02;;;;;;;;;1.00;1.00;;;;;;;;5071656;28;8860;-74
2023/07/19 11:23:28;;;;;;;;;2.00;2.00;;;;;;;;5071381;28;9697;-72
2023/07/19 11:26:02;;;;;;;;;0.00;0.00;;;;;;;;5071611;28;8809;-72
2023/07/19 11:28:42;;;;;;;;;1.00;1.00;;;;;;;;5071365;28;8799;-73
2023/07/19 11:31:08;;;;;;;;;2.00;2.00;;;;;;;;5071230;28;9707;-73
2023/07/19 11:33:36;;;;;;;;;1.00;1.00;;;;;;;;5071340;28;10494;-73
2023/07/19 11:36:05;;;;;;;;;2.50;0.25;;;;;;;;5071022;28;8820;-71
2023/07/19 11:38:32;;;;;;;;;0.00;0.00;;;;;;;;5070989;28;9634;-71
2023/07/19 11:40:58;;;;;;;;;2.00;1.00;;;;;;;;5070755;28;9547;-71
2023/07/19 11:43:25;;;;;;;;;0.00;0.00;;;;;;;;5070433;28;9743;-72
2023/07/19 11:45:51;;;;;;;;;1.75;1.75;;;;;;;;5070611;28;9752;-72
2023/07/19 11:48:16;;;;;;;;;3.00;1.00;;;;;;;;5069751;28;10017;-72
2023/07/19 11:50:41;;;;;;;;;1.75;1.75;;;;;;;;5070645;28;8831;-72
2023/07/19 11:53:06;;;;;;;;;0.00;0.00;;;;;;;;5070898;28;8875;-72
2023/07/19 11:55:32;;;;;;;;;0.00;0.00;;;;;;;;5071131;28;8816;-72
2023/07/19 11:58:03;;;;;;;;;1.00;1.00;;;;;;;;5070927;28;8873;-73
2023/07/19 12:00:30;;;;;;;;;0.50;0.50;;;;;;;;5070654;28;8795;-72
2023/07/19 12:02:55;;;;;;;;;2.00;2.00;;;;;;;;5070671;28;9560;-72
2023/07/19 12:05:22;;;;;;;;;3.50;1.00;;;;;;;;5052645;28;9499;-72
2023/07/19 12:07:48;;;;;;;;;1.00;1.00;;;;;;;;5070637;28;8807;-72
2023/07/19 12:10:14;;;;;;;;;0.00;0.00;;;;;;;;5070853;28;9635;-72
2023/07/19 12:12:39;;;;;;;;;1.00;1.00;;;;;;;;5070707;28;9636;-72
2023/07/19 12:15:05;;;;;;;;;1.00;1.00;;;;;;;;5069958;28;8824;-72
2023/07/19 12:17:31;;;;;;;;;1.00;1.00;;;;;;;;5070761;28;8796;-72
2023/07/19 12:19:59;;;;;;;;;1.00;1.00;;;;;;;;5070534;28;10263;-71
2023/07/19 12:22:24;;;;;;;;;1.00;1.00;;;;;;;;5070641;28;10110;-71
2023/07/19 12:24:50;;;;;;;;;0.50;0.00;;;;;;;;5070531;28;9569;-72
2023/07/19 12:27:16;;;;;;;;;0.50;0.50;;;;;;;;5069879;28;8827;-73
2023/07/19 12:29:41;;;;;;;;;0.00;0.00;;;;;;;;5070059;28;8788;-73
2023/07/19 12:32:06;;;;;;;;;1.00;1.00;;;;;;;;5070328;28;10543;-73
2023/07/19 12:34:32;;;;;;;;;1.00;1.00;;;;;;;;5068325;28;8845;-73
2023/07/19 12:36:57;;;;;;;;;1.00;1.00;;;;;;;;5069282;28;8804;-72
2023/07/19 12:39:24;;;;;;;;;1.00;1.00;;;;;;;;5069072;28;8870;-73
2023/07/19 12:41:49;;;;;;;;;0.67;0.00;;;;;;;;5069505;28;8956;-73
2023/07/19 12:44:15;;;;;;;;;0.00;0.00;;;;;;;;5069277;28;9628;-73
2023/07/19 12:46:40;;;;;;;;;1.00;1.00;;;;;;;;5067495;28;8830;-73
2023/07/19 12:49:06;;;;;;;;;4.25;1.50;;;;;;;;5069144;28;8804;-73
2023/07/19 12:51:31;;;;;;;;;2.00;2.00;;;;;;;;5068687;28;8917;-74
2023/07/19 12:53:57;;;;;;;;;1.50;1.50;;;;;;;;5067893;28;8836;-72
2023/07/19 12:56:23;;;;;;;;;4.00;2.00;;;;;;;;5070179;28;8773;-73
2023/07/19 12:58:48;;;;;;;;;3.25;2.00;;;;;;;;5072039;28;8800;-72
2023/07/19 13:01:14;;;;;;;;;1.00;1.00;;;;;;;;5054497;28;8995;-73
2023/07/19 13:03:39;;;;;;;;;2.25;1.00;;;;;;;;5072322;28;8824;-72
2023/07/19 13:06:04;;;;;;;;;1.00;1.00;;;;;;;;5072453;28;8834;-72
2023/07/19 13:08:29;;;;;;;;;0.50;0.50;;;;;;;;5072580;28;8804;-72
2023/07/19 13:10:56;;;;;;;;;1.00;1.00;;;;;;;;5071958;28;8913;-72
2023/07/19 13:13:21;;;;;;;;;0.00;0.00;;;;;;;;5071287;28;8805;-73
2023/07/19 13:15:46;;;;;;;;;0.00;0.00;;;;;;;;5072491;28;9550;-73
2023/07/19 13:18:11;;;;;;;;;0.00;0.00;;;;;;;;5072459;28;8804;-73
2023/07/19 13:20:37;;;;;;;;;1.00;1.00;;;;;;;;5072128;28;8884;-72
2023/07/19 13:23:02;;;;;;;;;0.00;0.00;;;;;;;;5054161;28;8850;-73
2023/07/19 13:25:27;;;;;;;;;0.00;0.00;;;;;;;;5071831;28;8796;-72
2023/07/19 13:27:52;;;;;;;;;1.00;1.00;;;;;;;;5072089;28;8839;-72
2023/07/19 13:30:17;;;;;;;;;0.33;0.33;;;;;;;;5072577;28;8808;-72
2023/07/19 13:32:43;;;;;;;;;0.33;0.33;;;;;;;;5070697;28;8938;-72
2023/07/19 13:35:08;;;;;;;;;1.25;1.00;;;;;;;;5071736;28;9596;-72
2023/07/19 13:37:33;;;;;;;;;0.50;0.50;;;;;;;;5072217;28;8804;-72
2023/07/19 13:39:58;;;;;;;;;1.00;1.00;;;;;;;;5071821;28;8903;-73
2023/07/19 13:42:24;;;;;;;;;1.25;1.00;;;;;;;;5071899;28;8785;-73
2023/07/19 13:44:49;;;;;;;;;1.25;0.00;;;;;;;;5071912;28;8897;-73
2023/07/19 13:47:15;;;;;;;;;0.25;0.25;;;;;;;;5071804;28;8829;-72
2023/07/19 13:49:40;;;;;;;;;0.50;0.50;;;;;;;;5070749;28;8823;-71
2023/07/19 13:52:06;;;;;;;;;0.25;0.25;;;;;;;;5072639;28;8796;-72
2023/07/19 13:54:31;;;;;;;;;0.00;0.00;;;;;;;;5072849;28;8903;-71
2023/07/19 13:56:57;;;;;;;;;0.00;0.00;;;;;;;;5072782;28;8899;-72
2023/07/19 13:59:23;;;;;;;;;1.00;1.00;;;;;;;;5073131;28;8810;-71
2023/07/19 14:01:48;;;;;;;;;0.00;0.00;;;;;;;;5072633;28;9573;-70
2023/07/19 14:04:13;;;;;;;;;0.00;0.00;;;;;;;;5072581;28;8831;-71
2023/07/19 14:06:38;;;;;;;;;0.00;0.00;;;;;;;;5072216;28;8850;-70
2023/07/19 14:09:03;;;;;;;;;0.00;0.00;;;;;;;;5072907;28;8830;-71
2023/07/19 14:11:29;;;;;;;;;1.00;1.00;;;;;;;;5072456;28;8800;-73
2023/07/19 14:13:54;;;;;;;;;0.00;0.00;;;;;;;;5072749;28;8848;-73
2023/07/19 14:16:19;;;;;;;;;1.00;1.00;;;;;;;;5071095;28;8815;-71
2023/07/19 14:18:44;;;;;;;;;0.25;0.25;;;;;;;;5072410;28;8870;-72
2023/07/19 14:21:10;;;;;;;;;1.00;1.00;;;;;;;;5072506;28;8808;-72
2023/07/19 14:23:35;;;;;;;;;1.75;0.75;;;;;;;;5072414;28;8820;-72
2023/07/19 14:26:00;;;;;;;;;2.00;0.00;;;;;;;;5072182;28;8911;-70
2023/07/19 14:28:25;;;;;;;;;0.00;0.00;;;;;;;;5072470;28;8796;-73
2023/07/19 14:30:51;;;;;;;;;0.00;0.00;;;;;;;;5072041;28;8808;-72
2023/07/19 14:33:18;;;;;;;;;1.00;1.00;;;;;;;;5072361;28;8918;-73
2023/07/19 14:35:43;;;;;;;;;1.75;0.25;;;;;;;;5071950;28;8769;-72
2023/07/19 14:38:08;;;;;;;;;1.50;0.75;;;;;;;;5053753;28;10419;-71
2023/07/19 14:40:34;;;;;;;;;1.75;1.75;;;;;;;;5071880;28;8950;-73
2023/07/19 14:43:01;;;;;;;;;0.50;0.50;;;;;;;;5070553;28;8910;-73